Sawyer, ND

5:21 PM CDT on September 18, 2014 (GMT -0500)
Dakota Park South Minot | Change Station
CLOSE
Current Station
Personal Weather Station
Location: Minot, ND
Elevation: 1750 ft
Nearby Weather Stations

Elev 1750 ft 48.20 °N, 101.31 °W | Updated 10 seconds ago

Partly Cloudy
Partly Cloudy
79.0 °F
Feels Like 80 °F
N
8.3
Wind Variable Wind from NW
Gusts 14.5 mph

Today
High -- | Low -- °F
--% Chance of Precip.
Yesterday
High -- | Low -- °F
Precip. -- in
7:25 AM 7:50 PM
Waning Crescent, 24% visible
Pressure 29.62 in
Visibility 10.0 miles
Clouds Clear
Heat Index 80 °F
Dew Point 61 °F
Humidity 54%
Rainfall 0.00 in
Snow Depth Not available.
UV 0.0 out of 12
Pollen 5.40 out of 12
Air Quality Not available.
Flu Activity Not available.
METAR KMOT 182154Z 17017G23KT 10SM CLR 26/16 A2962 RMK AO2 SLP028 T02610161

More Conditions Fewer Conditions

Pressure 29.62 in
Visibility 10.0 miles
Clouds Clear
Heat Index 80 °F
Dew Point 61 °F
Humidity 54%
Rainfall 0.00 in
Snow Depth Not available.
UV 0.0 out of 12
Pollen 5.40 out of 12
Air Quality Not available.
Flu Activity Not available.
METAR KMOT 182154Z 17017G23KT 10SM CLR 26/16 A2962 RMK AO2 SLP028 T02610161

More Conditions Fewer Conditions

10-Day Weather Forecast

Almanac

Astronomy

Sep. 18, 2014 Rise Set
Actual Time 7:25 AM CDT 7:50 PM CDT
Civil Twilight 6:54 AM CDT 8:21 PM CDT
Nautical Twilight 6:17 AM CDT 8:58 PM CDT
Astronomical Twilight 5:39 AM CDT 9:36 PM CDT
Moon 2:01 AM CDT 4:58 PM CDT
Length of Visible Light 13h 27m
Length of Day
12h 24m
Tomorrow will be 3m 27s shorter.
Waning Crescent, 24% of the Moon is Illuminated
Today
Waning Crescent
Sep 24
New
Oct 1
First Quarter
Oct 8
Full
Oct 15
Last Quarter

Today's Extremes

State Highs State Lows

Community

WunderPhotos

Upload Photos

1,754,457 photos uploaded!

WunderBlogs® & News

Nearby

Snow Depth

Station Depth Elevation
No new snow has been reported.

Earthquake Activity

City Distance Mag. Time & Date
No recent earthquake activity has been reported nearby.
Minimum magnitude displayed is 2.5.

Coastal Water Temperatures

Place Temperature
No Stations Reporting

Nearby Weather Stations